createdAt,value
2022-10-23T04:03:39.271Z,99757.91
2022-10-23T04:07:42.162Z,99759.16
2022-10-23T04:11:46.231Z,99760.81
2022-10-23T04:15:50.286Z,99766.25
2022-10-23T04:19:54.320Z,99773.50
2022-10-23T04:23:56.946Z,99767.47
2022-10-23T04:27:59.613Z,99769.75
2022-10-23T04:32:02.364Z,99762.91
2022-10-23T04:36:07.315Z,99758.13
2022-10-23T04:40:10.678Z,99751.22
2022-10-23T04:44:14.247Z,99744.59
2022-10-23T04:48:16.930Z,99750.03
2022-10-23T04:52:39.580Z,99753.13
2022-10-23T04:57:00.542Z,99745.44
2022-10-23T05:01:11.481Z,99733.16
2022-10-23T05:05:14.778Z,99740.88
2022-10-23T05:09:41.816Z,99736.94
2022-10-23T05:14:20.625Z,99736.50
2022-10-23T05:18:27.790Z,99737.31
2022-10-23T05:22:35.533Z,99739.59
2022-10-23T05:26:41.551Z,99732.94
2022-10-23T05:30:44.242Z,99727.75
2022-10-23T05:34:47.437Z,99732.94
2022-10-23T05:38:50.465Z,99740.84
2022-10-23T05:42:56.086Z,99733.78
2022-10-23T05:47:10.069Z,99729.00
2022-10-23T05:51:31.204Z,99728.41
2022-10-23T05:55:52.503Z,99726.91
2022-10-23T06:00:15.429Z,99721.34
2022-10-23T06:04:18.102Z,99725.25
2022-10-23T06:08:40.695Z,99717.56
2022-10-23T06:12:43.531Z,99707.19
2022-10-23T06:16:51.324Z,99710.72
2022-10-23T06:20:54.994Z,99717.78
2022-10-23T06:25:01.150Z,99726.50
2022-10-23T06:29:05.214Z,99733.16
2022-10-23T06:33:09.202Z,99729.44
2022-10-23T06:37:12.127Z,99727.56
2022-10-23T06:41:22.714Z,99722.75
2022-10-23T06:45:32.470Z,99718.56
2022-10-23T06:49:56.445Z,99725.38
2022-10-23T06:53:59.406Z,99717.28
2022-10-23T06:58:22.046Z,99725.66
2022-10-23T07:02:37.375Z,99720.66
2022-10-23T07:06:42.183Z,99698.34
2022-10-23T07:10:45.389Z,99697.03
2022-10-23T07:14:48.409Z,99693.94
2022-10-23T07:18:58.746Z,99693.06
2022-10-23T07:23:05.458Z,99693.41
2022-10-23T07:27:13.200Z,99679.75
2022-10-23T07:31:16.136Z,99682.88
2022-10-23T07:35:47.492Z,99689.97
2022-10-23T07:39:58.386Z,99684.78
2022-10-23T07:44:01.392Z,99692.94
2022-10-23T07:48:04.285Z,99694.44
2022-10-23T07:52:23.529Z,99677.31
2022-10-23T07:56:45.967Z,99674.94
2022-10-23T08:00:58.436Z,99676.03
2022-10-23T08:05:08.471Z,99674.06
2022-10-23T08:09:20.886Z,99678.03
2022-10-23T08:13:25.001Z,99675.81
2022-10-23T08:17:39.146Z,99674.38
2022-10-23T08:21:48.882Z,99665.75
2022-10-23T08:25:58.377Z,99667.25
2022-10-23T08:30:02.407Z,99659.97
2022-10-23T08:34:05.661Z,99658.22
2022-10-23T08:38:08.446Z,99662.78
2022-10-23T08:42:22.405Z,99650.31
2022-10-23T08:46:32.279Z,99649.72
2022-10-23T08:50:59.233Z,99652.75
2022-10-23T08:55:13.333Z,99648.66
2022-10-23T08:59:22.716Z,99650.00
2022-10-23T09:03:27.499Z,99646.91
2022-10-23T09:07:41.728Z,99637.97
2022-10-23T09:11:50.258Z,99648.75
2022-10-23T09:15:59.628Z,99637.84
2022-10-23T09:20:13.976Z,99645.81
2022-10-23T09:24:18.451Z,99638.28
2022-10-23T09:28:23.048Z,99632.44
2022-10-23T09:32:36.780Z,99631.69
2022-10-23T09:36:50.767Z,99633.41
2022-10-23T09:40:53.731Z,99633.16
2022-10-23T09:44:57.432Z,99637.09
2022-10-23T09:49:02.197Z,99632.69
2022-10-23T09:53:17.672Z,99633.31
2022-10-23T09:57:24.892Z,99626.72
2022-10-23T10:01:30.795Z,99624.75
2022-10-23T10:05:57.575Z,99628.13
2022-10-23T10:10:02.071Z,99614.41
2022-10-23T10:14:39.178Z,99612.50
2022-10-23T10:18:48.533Z,99610.56
2022-10-23T10:22:57.092Z,99607.53
2022-10-23T10:27:09.319Z,99599.31
2022-10-23T10:31:20.507Z,99594.38
2022-10-23T10:35:37.155Z,99591.63
2022-10-23T10:39:47.032Z,99581.69
2022-10-23T10:44:04.326Z,99571.53
2022-10-23T10:48:24.464Z,99576.19
2022-10-23T10:52:51.409Z,99564.94
2022-10-23T10:56:54.779Z,99561.09
2022-10-23T11:01:02.392Z,99552.53
2022-10-23T11:05:19.781Z,99558.03
2022-10-23T11:09:26.223Z,99560.19
2022-10-23T11:13:34.554Z,99550.81
2022-10-23T11:17:43.426Z,99543.88
2022-10-23T11:21:54.039Z,99529.97
2022-10-23T11:26:07.633Z,99517.72
2022-10-23T11:30:20.304Z,99505.72
2022-10-23T11:34:58.493Z,99499.16
2022-10-23T11:39:15.575Z,99491.25
2022-10-23T11:43:27.821Z,99486.28
2022-10-23T11:47:40.574Z,99488.53
2022-10-23T11:51:44.700Z,99487.69
2022-10-23T11:56:04.900Z,99477.94
2022-10-23T12:00:22.107Z,99467.66
2022-10-23T12:04:28.926Z,99467.16
2022-10-23T12:08:37.213Z,99458.31
2022-10-23T12:12:41.015Z,99456.91
2022-10-23T12:16:43.658Z,99442.38
2022-10-23T12:20:52.434Z,99427.03
2022-10-23T12:25:04.278Z,99428.09
2022-10-23T12:29:19.951Z,99411.41
2022-10-23T12:33:29.304Z,99412.59
2022-10-23T12:37:52.438Z,99399.16
2022-10-23T12:41:57.324Z,99389.28
2022-10-23T12:46:04.815Z,99391.72
2022-10-23T12:50:18.746Z,99382.97
2022-10-23T12:54:22.617Z,99377.16
2022-10-23T12:58:30.047Z,99372.50
2022-10-23T13:02:36.799Z,99384.72
2022-10-23T13:06:40.312Z,99377.88
2022-10-23T13:10:44.788Z,99381.59
2022-10-23T13:14:59.575Z,99368.53
2022-10-23T13:19:02.178Z,99358.75
2022-10-23T13:23:12.152Z,99360.78
2022-10-23T13:27:26.718Z,99352.56
2022-10-23T13:31:33.507Z,99348.16
2022-10-23T13:35:37.258Z,99353.47
2022-10-23T13:39:39.843Z,99353.47
2022-10-23T13:43:43.177Z,99357.50
2022-10-23T13:47:47.131Z,99362.59
2022-10-23T13:51:52.037Z,99343.69
2022-10-23T13:55:58.761Z,99327.94
2022-10-23T14:00:01.535Z,99323.00
2022-10-23T14:04:17.966Z,99333.06
2022-10-23T14:08:20.714Z,99322.69
2022-10-23T14:12:23.318Z,99311.72
2022-10-23T14:16:25.958Z,99284.84
2022-10-23T14:20:30.107Z,99266.81
2022-10-23T14:24:32.702Z,99274.28
2022-10-23T14:28:35.387Z,99279.25
2022-10-23T14:32:38.118Z,99277.34
2022-10-23T14:36:49.825Z,99276.47
2022-10-23T14:40:59.407Z,99262.16
2022-10-23T14:45:02.602Z,99235.91
2022-10-23T14:49:05.109Z,99255.50
2022-10-23T14:53:09.094Z,99261.03
2022-10-23T14:57:12.407Z,99247.59
2022-10-23T15:01:15.016Z,99238.41
2022-10-23T15:05:18.388Z,99230.34
2022-10-23T15:09:22.196Z,99220.13
2022-10-23T15:13:24.980Z,99222.25
2022-10-23T15:17:27.676Z,99226.69
2022-10-23T15:21:30.408Z,99222.69
2022-10-23T15:25:34.395Z,99224.84
2022-10-23T15:29:37.064Z,99207.34
2022-10-23T15:33:39.680Z,99203.53
2022-10-23T15:37:42.665Z,99185.78
2022-10-23T15:41:47.174Z,99183.84
2022-10-23T15:45:49.765Z,99185.53
2022-10-23T15:49:52.344Z,99193.75
2022-10-23T15:53:56.974Z,99179.25
2022-10-23T15:58:04.108Z,99169.69
2022-10-23T16:02:06.978Z,99187.47
2022-10-23T16:06:12.760Z,99184.47
2022-10-23T16:10:15.397Z,99160.13
2022-10-23T16:14:19.391Z,99148.63
2022-10-23T16:18:25.098Z,99147.81
2022-10-23T16:22:28.210Z,99139.06
2022-10-23T16:26:31.467Z,99139.63
2022-10-23T16:30:35.355Z,99124.28
2022-10-23T16:34:37.791Z,99119.91
2022-10-23T16:38:40.400Z,99110.88
2022-10-23T16:42:43.303Z,99109.81
2022-10-23T16:46:51.051Z,99110.34
2022-10-23T16:50:53.603Z,99106.75
2022-10-23T16:54:56.256Z,99097.97
2022-10-23T16:59:00.478Z,99102.09
2022-10-23T17:03:05.620Z,99096.88
2022-10-23T17:07:08.339Z,99104.59
2022-10-23T17:11:12.675Z,99105.97
2022-10-23T17:15:15.259Z,99099.13
2022-10-23T17:19:43.354Z,99096.94
2022-10-23T17:23:43.635Z,99095.56
2022-10-23T17:27:47.055Z,99097.75
2022-10-23T17:31:51.302Z,99093.94
2022-10-23T17:35:55.290Z,99098.59
2022-10-23T17:40:02.348Z,99133.88
2022-10-23T17:44:05.406Z,99106.78
2022-10-23T17:48:07.993Z,99123.75
2022-10-23T17:52:14.825Z,99132.72
2022-10-23T17:56:20.151Z,99125.06
2022-10-23T18:00:22.897Z,99125.06
2022-10-23T18:04:25.488Z,99126.97
2022-10-23T18:08:29.559Z,99132.47
2022-10-23T18:12:32.531Z,99140.13
2022-10-23T18:16:36.771Z,99144.78
2022-10-23T18:20:40.902Z,99138.47
2022-10-23T18:24:44.880Z,99136.84
2022-10-23T18:28:50.006Z,99147.00
2022-10-23T18:32:52.619Z,99149.44
2022-10-23T18:36:56.405Z,99146.41
2022-10-23T18:41:00.318Z,99149.16
2022-10-23T18:45:02.898Z,99173.81
2022-10-23T18:49:05.764Z,99181.19
2022-10-23T18:53:08.802Z,99188.56
2022-10-23T18:57:12.739Z,99185.56
2022-10-23T19:01:15.426Z,99192.91
2022-10-23T19:05:18.157Z,99200.03
2022-10-23T19:09:21.039Z,99209.31
2022-10-23T19:13:24.969Z,99206.03
2022-10-23T19:17:31.070Z,99201.66
2022-10-23T19:21:37.855Z,99212.06
2022-10-23T19:25:40.473Z,99206.28
2022-10-23T19:29:47.459Z,99203.81
2022-10-23T19:33:50.580Z,99199.09
2022-10-23T19:37:53.144Z,99199.09
2022-10-23T19:41:57.538Z,99209.19
2022-10-23T19:46:06.377Z,99202.31
2022-10-23T19:50:12.038Z,99214.91
2022-10-23T19:54:15.319Z,99242.03
2022-10-23T19:58:18.704Z,99225.97
2022-10-23T20:02:23.292Z,99234.75
2022-10-23T20:06:27.824Z,99230.81
2022-10-23T20:10:30.515Z,99240.06
2022-10-23T20:14:33.373Z,99252.03
2022-10-23T20:18:37.274Z,99251.28
2022-10-23T20:22:41.810Z,99260.31
2022-10-23T20:26:48.697Z,99241.97
2022-10-23T20:30:51.271Z,99163.13
2022-10-23T20:34:55.413Z,99219.47
2022-10-23T20:38:59.211Z,99221.13
2022-10-23T20:43:01.840Z,99205.03
2022-10-23T20:47:04.413Z,99182.91
2022-10-23T20:51:10.313Z,99145.75
2022-10-23T20:55:12.897Z,99145.06
2022-10-23T20:59:18.151Z,99129.03
